sensor_id;sensor_type;location;lat;lon;timestamp;pressure;altitude;pressure_sealevel;temperature;humidity
76808;BME280;65758;45.458;11.062;2023-03-26T00:01:19;100571.30;;;13.60;49.35
76808;BME280;65758;45.458;11.062;2023-03-26T00:03:47;100567.73;;;13.57;49.45
76808;BME280;65758;45.458;11.062;2023-03-26T00:06:24;100568.28;;;13.53;50.03
76808;BME280;65758;45.458;11.062;2023-03-26T00:08:52;100569.23;;;13.50;49.64
76808;BME280;65758;45.458;11.062;2023-03-26T00:11:21;100569.28;;;13.47;49.60
76808;BME280;65758;45.458;11.062;2023-03-26T00:13:48;100568.46;;;13.44;49.85
76808;BME280;65758;45.458;11.062;2023-03-26T00:16:17;100575.06;;;13.37;49.89
76808;BME280;65758;45.458;11.062;2023-03-26T00:18:46;100583.40;;;13.30;49.68
76808;BME280;65758;45.458;11.062;2023-03-26T00:21:18;100583.70;;;13.22;49.75
76808;BME280;65758;45.458;11.062;2023-03-26T00:23:58;100576.41;;;13.14;49.53
76808;BME280;65758;45.458;11.062;2023-03-26T00:26:26;100577.77;;;13.08;49.41
76808;BME280;65758;45.458;11.062;2023-03-26T00:28:56;100583.11;;;13.06;49.76
76808;BME280;65758;45.458;11.062;2023-03-26T00:31:23;100590.03;;;13.09;49.62
76808;BME280;65758;45.458;11.062;2023-03-26T00:33:51;100598.64;;;13.10;49.44
76808;BME280;65758;45.458;11.062;2023-03-26T00:36:22;100599.83;;;13.09;50.00
76808;BME280;65758;45.458;11.062;2023-03-26T00:38:52;100595.77;;;13.05;50.04
76808;BME280;65758;45.458;11.062;2023-03-26T00:41:22;100586.83;;;12.97;50.23
76808;BME280;65758;45.458;11.062;2023-03-26T00:43:58;100586.85;;;12.92;50.49
76808;BME280;65758;45.458;11.062;2023-03-26T00:46:26;100596.74;;;12.87;50.57
76808;BME280;65758;45.458;11.062;2023-03-26T00:48:53;100593.34;;;12.78;50.63
76808;BME280;65758;45.458;11.062;2023-03-26T00:51:25;100590.25;;;12.72;50.79
76808;BME280;65758;45.458;11.062;2023-03-26T00:53:52;100587.45;;;12.64;50.42
76808;BME280;65758;45.458;11.062;2023-03-26T00:56:19;100589.86;;;12.53;50.80
76808;BME280;65758;45.458;11.062;2023-03-26T00:58:46;100581.64;;;12.45;50.63
76808;BME280;65758;45.458;11.062;2023-03-26T01:01:18;100581.90;;;12.36;50.58
76808;BME280;65758;45.458;11.062;2023-03-26T01:03:55;100576.90;;;12.29;50.91
76808;BME280;65758;45.458;11.062;2023-03-26T01:06:36;100570.47;;;12.23;51.01
76808;BME280;65758;45.458;11.062;2023-03-26T01:09:12;100562.33;;;12.17;50.86
76808;BME280;65758;45.458;11.062;2023-03-26T01:11:40;100558.40;;;12.11;51.29
76808;BME280;65758;45.458;11.062;2023-03-26T01:14:11;100548.14;;;12.05;51.64
76808;BME280;65758;45.458;11.062;2023-03-26T01:16:44;100546.23;;;11.99;51.78
76808;BME280;65758;45.458;11.062;2023-03-26T01:19:50;100542.40;;;11.94;51.54
76808;BME280;65758;45.458;11.062;2023-03-26T01:22:21;100531.48;;;11.86;51.95
76808;BME280;65758;45.458;11.062;2023-03-26T01:24:49;100528.85;;;11.77;52.17
76808;BME280;65758;45.458;11.062;2023-03-26T01:38:22;100532.23;;;11.73;51.86
76808;BME280;65758;45.458;11.062;2023-03-26T01:41:16;100527.50;;;11.78;51.55
76808;BME280;65758;45.458;11.062;2023-03-26T01:46:34;100533.19;;;11.82;51.78
76808;BME280;65758;45.458;11.062;2023-03-26T01:49:04;100530.98;;;11.76;51.92
76808;BME280;65758;45.458;11.062;2023-03-26T01:51:34;100527.70;;;11.70;52.01
76808;BME280;65758;45.458;11.062;2023-03-26T01:54:02;100522.86;;;11.66;52.20
76808;BME280;65758;45.458;11.062;2023-03-26T01:56:49;100523.88;;;11.64;52.79
76808;BME280;65758;45.458;11.062;2023-03-26T02:02:14;100516.77;;;11.65;52.46
76808;BME280;65758;45.458;11.062;2023-03-26T02:04:53;100518.94;;;11.67;52.85
76808;BME280;65758;45.458;11.062;2023-03-26T02:10:15;100513.81;;;11.61;52.55
76808;BME280;65758;45.458;11.062;2023-03-26T02:12:43;100512.09;;;11.52;52.27
76808;BME280;65758;45.458;11.062;2023-03-26T02:15:11;100515.70;;;11.45;52.52
76808;BME280;65758;45.458;11.062;2023-03-26T02:17:38;100516.08;;;11.41;52.67
76808;BME280;65758;45.458;11.062;2023-03-26T02:20:11;100515.23;;;11.36;52.67
76808;BME280;65758;45.458;11.062;2023-03-26T02:22:41;100509.58;;;11.32;52.59
76808;BME280;65758;45.458;11.062;2023-03-26T02:25:14;100512.66;;;11.24;52.52
76808;BME280;65758;45.458;11.062;2023-03-26T02:27:43;100516.95;;;11.15;52.32
76808;BME280;65758;45.458;11.062;2023-03-26T02:30:14;100509.52;;;11.10;52.29
76808;BME280;65758;45.458;11.062;2023-03-26T02:32:42;100514.73;;;11.06;52.34
76808;BME280;65758;45.458;11.062;2023-03-26T02:35:10;100525.83;;;11.02;52.08
76808;BME280;65758;45.458;11.062;2023-03-26T02:37:38;100527.00;;;11.03;52.19
76808;BME280;65758;45.458;11.062;2023-03-26T02:40:12;100537.41;;;11.06;51.97
76808;BME280;65758;45.458;11.062;2023-03-26T02:42:41;100541.96;;;11.11;51.88
76808;BME280;65758;45.458;11.062;2023-03-26T02:45:08;100539.56;;;11.15;51.53
76808;BME280;65758;45.458;11.062;2023-03-26T02:47:57;100539.10;;;11.19;51.81
76808;BME280;65758;45.458;11.062;2023-03-26T02:50:50;100543.81;;;11.21;52.01
76808;BME280;65758;45.458;11.062;2023-03-26T02:53:38;100545.72;;;11.23;52.15
76808;BME280;65758;45.458;11.062;2023-03-26T02:56:27;100544.08;;;11.23;52.22
76808;BME280;65758;45.458;11.062;2023-03-26T02:59:20;100539.80;;;11.21;52.00
76808;BME280;65758;45.458;11.062;2023-03-26T03:01:54;100533.54;;;11.20;52.44
76808;BME280;65758;45.458;11.062;2023-03-26T03:04:22;100540.35;;;11.19;52.35
76808;BME280;65758;45.458;11.062;2023-03-26T03:06:48;100542.48;;;11.14;52.05
76808;BME280;65758;45.458;11.062;2023-03-26T03:09:19;100541.89;;;11.10;52.12
76808;BME280;65758;45.458;11.062;2023-03-26T03:12:04;100541.52;;;11.06;52.26
76808;BME280;65758;45.458;11.062;2023-03-26T03:14:31;100539.27;;;11.06;52.16
76808;BME280;65758;45.458;11.062;2023-03-26T03:16:58;100537.98;;;11.07;52.49
76808;BME280;65758;45.458;11.062;2023-03-26T03:19:25;100538.95;;;11.09;52.35
76808;BME280;65758;45.458;11.062;2023-03-26T03:21:53;100532.13;;;11.09;52.37
76808;BME280;65758;45.458;11.062;2023-03-26T03:24:19;100528.79;;;11.07;52.55
76808;BME280;65758;45.458;11.062;2023-03-26T03:26:46;100522.11;;;11.01;52.64
76808;BME280;65758;45.458;11.062;2023-03-26T03:29:29;100521.60;;;10.98;52.73
76808;BME280;65758;45.458;11.062;2023-03-26T03:32:00;100519.32;;;10.94;52.64
76808;BME280;65758;45.458;11.062;2023-03-26T03:34:36;100519.40;;;10.88;52.71
76808;BME280;65758;45.458;11.062;2023-03-26T03:37:04;100516.52;;;10.82;52.78
76808;BME280;65758;45.458;11.062;2023-03-26T03:39:38;100517.88;;;10.75;52.75
76808;BME280;65758;45.458;11.062;2023-03-26T03:42:06;100517.70;;;10.70;52.70
76808;BME280;65758;45.458;11.062;2023-03-26T03:44:33;100515.27;;;10.67;52.86
76808;BME280;65758;45.458;11.062;2023-03-26T03:47:00;100505.18;;;10.59;52.94
76808;BME280;65758;45.458;11.062;2023-03-26T03:49:27;100509.95;;;10.49;53.32
76808;BME280;65758;45.458;11.062;2023-03-26T03:51:54;100503.08;;;10.42;53.59
76808;BME280;65758;45.458;11.062;2023-03-26T03:54:31;100504.58;;;10.43;53.62
76808;BME280;65758;45.458;11.062;2023-03-26T03:57:16;100507.56;;;10.46;53.59
76808;BME280;65758;45.458;11.062;2023-03-26T03:59:55;100510.92;;;10.46;53.79
76808;BME280;65758;45.458;11.062;2023-03-26T04:02:27;100509.89;;;10.47;53.50
76808;BME280;65758;45.458;11.062;2023-03-26T04:05:02;100511.30;;;10.46;53.41
76808;BME280;65758;45.458;11.062;2023-03-26T04:07:30;100517.42;;;10.46;53.32
76808;BME280;65758;45.458;11.062;2023-03-26T04:10:05;100524.73;;;10.48;53.33
76808;BME280;65758;45.458;11.062;2023-03-26T04:12:54;100531.06;;;10.51;53.40
76808;BME280;65758;45.458;11.062;2023-03-26T04:15:44;100532.04;;;10.44;53.61
76808;BME280;65758;45.458;11.062;2023-03-26T04:18:11;100528.66;;;10.42;54.15
76808;BME280;65758;45.458;11.062;2023-03-26T04:20:42;100524.13;;;10.41;54.16
76808;BME280;65758;45.458;11.062;2023-03-26T04:23:18;100524.04;;;10.42;54.24
76808;BME280;65758;45.458;11.062;2023-03-26T04:25:51;100525.19;;;10.43;54.23
76808;BME280;65758;45.458;11.062;2023-03-26T04:31:18;100526.20;;;10.31;54.11
76808;BME280;65758;45.458;11.062;2023-03-26T04:33:51;100524.92;;;10.22;54.09
76808;BME280;65758;45.458;11.062;2023-03-26T04:36:28;100530.92;;;10.16;54.22
76808;BME280;65758;45.458;11.062;2023-03-26T04:38:59;100530.56;;;10.12;54.25
76808;BME280;65758;45.458;11.062;2023-03-26T04:41:48;100525.08;;;10.07;54.42
76808;BME280;65758;45.458;11.062;2023-03-26T04:44:17;100520.80;;;10.05;54.39
76808;BME280;65758;45.458;11.062;2023-03-26T04:46:59;100522.59;;;10.04;54.46
76808;BME280;65758;45.458;11.062;2023-03-26T04:49:34;100519.70;;;10.01;54.66
76808;BME280;65758;45.458;11.062;2023-03-26T04:52:01;100514.29;;;9.95;54.65
76808;BME280;65758;45.458;11.062;2023-03-26T04:54:46;100524.69;;;9.90;54.86
76808;BME280;65758;45.458;11.062;2023-03-26T04:57:36;100525.92;;;9.85;54.80
76808;BME280;65758;45.458;11.062;2023-03-26T05:00:14;100529.38;;;9.78;55.10
76808;BME280;65758;45.458;11.062;2023-03-26T05:02:44;100528.30;;;9.73;55.01
76808;BME280;65758;45.458;11.062;2023-03-26T05:05:16;100531.70;;;9.69;55.16
76808;BME280;65758;45.458;11.062;2023-03-26T05:07:44;100531.58;;;9.68;55.17
76808;BME280;65758;45.458;11.062;2023-03-26T05:10:13;100533.93;;;9.68;55.16
76808;BME280;65758;45.458;11.062;2023-03-26T05:12:50;100534.06;;;9.67;55.42
76808;BME280;65758;45.458;11.062;2023-03-26T05:15:22;100530.05;;;9.66;55.38
76808;BME280;65758;45.458;11.062;2023-03-26T05:18:02;100529.52;;;9.63;55.49
76808;BME280;65758;45.458;11.062;2023-03-26T05:20:34;100526.46;;;9.57;55.48
76808;BME280;65758;45.458;11.062;2023-03-26T05:23:02;100528.48;;;9.54;55.62
76808;BME280;65758;45.458;11.062;2023-03-26T05:25:32;100528.36;;;9.53;55.74
76808;BME280;65758;45.458;11.062;2023-03-26T05:28:01;100523.83;;;9.54;55.78
76808;BME280;65758;45.458;11.062;2023-03-26T05:30:41;100516.70;;;9.54;55.76
76808;BME280;65758;45.458;11.062;2023-03-26T05:33:09;100518.48;;;9.57;55.85
76808;BME280;65758;45.458;11.062;2023-03-26T05:35:42;100515.64;;;9.59;55.78
76808;BME280;65758;45.458;11.062;2023-03-26T05:38:09;100513.58;;;9.63;55.83
76808;BME280;65758;45.458;11.062;2023-03-26T05:40:36;100513.09;;;9.67;55.76
76808;BME280;65758;45.458;11.062;2023-03-26T05:43:04;100510.84;;;9.77;55.74
76808;BME280;65758;45.458;11.062;2023-03-26T05:45:34;100508.95;;;9.91;55.57
76808;BME280;65758;45.458;11.062;2023-03-26T05:48:11;100509.29;;;10.05;55.48
76808;BME280;65758;45.458;11.062;2023-03-26T05:50:38;100509.72;;;10.23;55.14
76808;BME280;65758;45.458;11.062;2023-03-26T05:53:05;100512.92;;;10.38;54.97
76808;BME280;65758;45.458;11.062;2023-03-26T05:55:51;100511.58;;;10.59;54.70
76808;BME280;65758;45.458;11.062;2023-03-26T05:59:05;100513.42;;;10.93;54.59
76808;BME280;65758;45.458;11.062;2023-03-26T06:01:59;100510.42;;;11.17;54.22
76808;BME280;65758;45.458;11.062;2023-03-26T06:04:32;100511.89;;;11.37;53.66
76808;BME280;65758;45.458;11.062;2023-03-26T06:07:18;100511.66;;;11.52;53.50
76808;BME280;65758;45.458;11.062;2023-03-26T06:10:01;100509.95;;;11.65;53.24
76808;BME280;65758;45.458;11.062;2023-03-26T06:12:28;100511.91;;;11.77;52.86
76808;BME280;65758;45.458;11.062;2023-03-26T06:14:56;100514.36;;;11.85;52.95
76808;BME280;65758;45.458;11.062;2023-03-26T06:17:35;100513.30;;;11.95;52.75
76808;BME280;65758;45.458;11.062;2023-03-26T06:20:12;100513.94;;;12.06;52.57
76808;BME280;65758;45.458;11.062;2023-03-26T06:22:42;100511.55;;;12.19;52.11
76808;BME280;65758;45.458;11.062;2023-03-26T06:25:20;100515.14;;;12.35;52.16
76808;BME280;65758;45.458;11.062;2023-03-26T06:28:03;100519.73;;;12.55;52.20
76808;BME280;65758;45.458;11.062;2023-03-26T06:30:39;100516.20;;;12.71;52.08
76808;BME280;65758;45.458;11.062;2023-03-26T06:33:35;100513.67;;;12.88;52.26
76808;BME280;65758;45.458;11.062;2023-03-26T06:36:02;100512.80;;;13.02;52.39
76808;BME280;65758;45.458;11.062;2023-03-26T06:38:29;100512.71;;;13.17;52.31
76808;BME280;65758;45.458;11.062;2023-03-26T06:41:03;100510.37;;;13.34;52.23
76808;BME280;65758;45.458;11.062;2023-03-26T06:43:42;100505.64;;;13.52;51.90
76808;BME280;65758;45.458;11.062;2023-03-26T06:46:09;100499.15;;;13.63;51.58
76808;BME280;65758;45.458;11.062;2023-03-26T06:48:37;100496.66;;;13.70;51.31
76808;BME280;65758;45.458;11.062;2023-03-26T06:51:23;100498.27;;;13.82;51.66
76808;BME280;65758;45.458;11.062;2023-03-26T06:54:16;100499.75;;;13.94;51.31
76808;BME280;65758;45.458;11.062;2023-03-26T06:56:48;100498.91;;;14.05;50.97
76808;BME280;65758;45.458;11.062;2023-03-26T06:59:27;100495.48;;;14.16;50.83
76808;BME280;65758;45.458;11.062;2023-03-26T07:02:12;100495.14;;;14.24;50.65
76808;BME280;65758;45.458;11.062;2023-03-26T07:04:58;100489.55;;;14.31;50.85
76808;BME280;65758;45.458;11.062;2023-03-26T07:07:43;100478.48;;;14.39;50.98
76808;BME280;65758;45.458;11.062;2023-03-26T07:10:35;100468.80;;;14.44;51.44
76808;BME280;65758;45.458;11.062;2023-03-26T07:13:20;100467.13;;;14.57;51.27
76808;BME280;65758;45.458;11.062;2023-03-26T07:16:19;100466.45;;;14.72;51.25
76808;BME280;65758;45.458;11.062;2023-03-26T07:18:58;100459.02;;;14.84;50.91
76808;BME280;65758;45.458;11.062;2023-03-26T07:21:29;100451.08;;;14.96;50.58
76808;BME280;65758;45.458;11.062;2023-03-26T07:23:56;100446.16;;;15.09;50.27
76808;BME280;65758;45.458;11.062;2023-03-26T07:29:55;100444.45;;;15.40;50.58
76808;BME280;65758;45.458;11.062;2023-03-26T07:33:00;100440.04;;;15.60;50.04
76808;BME280;65758;45.458;11.062;2023-03-26T07:48:18;100399.88;;;16.41;48.24
76808;BME280;65758;45.458;11.062;2023-03-26T07:51:16;100395.72;;;16.56;48.28
76808;BME280;65758;45.458;11.062;2023-03-26T07:54:09;100389.06;;;16.63;48.61
76808;BME280;65758;45.458;11.062;2023-03-26T07:56:49;100386.23;;;16.65;48.62
76808;BME280;65758;45.458;11.062;2023-03-26T07:59:39;100386.96;;;16.65;48.85
76808;BME280;65758;45.458;11.062;2023-03-26T08:08:52;100359.61;;;16.76;49.29
76808;BME280;65758;45.458;11.062;2023-03-26T08:12:26;100356.41;;;16.84;49.61
76808;BME280;65758;45.458;11.062;2023-03-26T08:17:36;100358.81;;;17.03;49.04
76808;BME280;65758;45.458;11.062;2023-03-26T08:23:04;100344.77;;;17.29;49.17
76808;BME280;65758;45.458;11.062;2023-03-26T08:28:27;100339.98;;;17.53;49.40
76808;BME280;65758;45.458;11.062;2023-03-26T08:30:56;100340.34;;;17.58;49.21
76808;BME280;65758;45.458;11.062;2023-03-26T08:33:25;100340.98;;;17.62;49.55
76808;BME280;65758;45.458;11.062;2023-03-26T08:35:52;100337.20;;;17.66;49.41
76808;BME280;65758;45.458;11.062;2023-03-26T08:38:20;100338.85;;;17.69;49.58
76808;BME280;65758;45.458;11.062;2023-03-26T08:52:32;100310.69;;;17.75;49.78
76808;BME280;65758;45.458;11.062;2023-03-26T08:58:08;100303.48;;;17.95;48.66
76808;BME280;65758;45.458;11.062;2023-03-26T09:03:43;100287.34;;;18.18;48.10
76808;BME280;65758;45.458;11.062;2023-03-26T09:10:01;100270.77;;;18.34;47.33
76808;BME280;65758;45.458;11.062;2023-03-26T09:21:46;100255.75;;;18.67;46.14
76808;BME280;65758;45.458;11.062;2023-03-26T09:24:01;100256.63;;;18.69;46.40
76808;BME280;65758;45.458;11.062;2023-03-26T09:32:36;100249.97;;;18.59;46.12
76808;BME280;65758;45.458;11.062;2023-03-26T09:38:13;100254.35;;;18.49;46.18
76808;BME280;65758;45.458;11.062;2023-03-26T09:40:54;100248.69;;;18.52;46.03
76808;BME280;65758;45.458;11.062;2023-03-26T09:43:50;100244.84;;;18.56;45.86
76808;BME280;65758;45.458;11.062;2023-03-26T09:49:35;100240.77;;;18.80;45.49
76808;BME280;65758;45.458;11.062;2023-03-26T09:55:13;100236.41;;;18.88;45.67
76808;BME280;65758;45.458;11.062;2023-03-26T10:01:32;100221.13;;;18.81;45.95
76808;BME280;65758;45.458;11.062;2023-03-26T10:03:57;100223.55;;;18.78;46.25
76808;BME280;65758;45.458;11.062;2023-03-26T10:06:38;100225.14;;;18.74;46.19
76808;BME280;65758;45.458;11.062;2023-03-26T10:09:22;100222.70;;;18.70;46.59
76808;BME280;65758;45.458;11.062;2023-03-26T10:22:55;100229.04;;;18.74;47.11
76808;BME280;65758;45.458;11.062;2023-03-26T10:37:00;100202.89;;;18.72;47.50
76808;BME280;65758;45.458;11.062;2023-03-26T10:56:25;100187.07;;;18.37;47.89
76808;BME280;65758;45.458;11.062;2023-03-26T10:58:54;100183.89;;;18.45;47.84
76808;BME280;65758;45.458;11.062;2023-03-26T11:03:55;100193.20;;;18.81;47.33
76808;BME280;65758;45.458;11.062;2023-03-26T11:12:15;100186.60;;;19.59;45.61
76808;BME280;65758;45.458;11.062;2023-03-26T11:15:36;100185.81;;;19.82;45.16
76808;BME280;65758;45.458;11.062;2023-03-26T11:18:10;100171.05;;;20.14;44.81
76808;BME280;65758;45.458;11.062;2023-03-26T11:20:56;100167.94;;;20.41;43.95
76808;BME280;65758;45.458;11.062;2023-03-26T11:32:12;100166.14;;;20.74;42.81
76808;BME280;65758;45.458;11.062;2023-03-26T11:34:57;100162.73;;;20.61;42.86
76808;BME280;65758;45.458;11.062;2023-03-26T11:37:40;100149.11;;;20.52;43.10
76808;BME280;65758;45.458;11.062;2023-03-26T11:40:22;100130.37;;;20.49;43.06
76808;BME280;65758;45.458;11.062;2023-03-26T11:42:57;100125.25;;;20.66;43.02
76808;BME280;65758;45.458;11.062;2023-03-26T11:45:28;100120.02;;;20.83;42.65
76808;BME280;65758;45.458;11.062;2023-03-26T11:48:25;100118.27;;;20.89;42.68
76808;BME280;65758;45.458;11.062;2023-03-26T11:51:11;100123.95;;;21.14;42.38
76808;BME280;65758;45.458;11.062;2023-03-26T11:53:40;100130.77;;;21.26;41.75
76808;BME280;65758;45.458;11.062;2023-03-26T12:01:56;100129.00;;;21.08;41.25
76808;BME280;65758;45.458;11.062;2023-03-26T12:04:34;100119.96;;;20.93;41.43
76808;BME280;65758;45.458;11.062;2023-03-26T12:07:33;100108.80;;;20.82;41.40
76808;BME280;65758;45.458;11.062;2023-03-26T12:10:06;100095.09;;;20.75;41.43
76808;BME280;65758;45.458;11.062;2023-03-26T12:12:46;100079.63;;;20.73;41.68
76808;BME280;65758;45.458;11.062;2023-03-26T12:15:16;100064.36;;;20.71;41.54
76808;BME280;65758;45.458;11.062;2023-03-26T12:17:50;100052.80;;;20.69;41.55
76808;BME280;65758;45.458;11.062;2023-03-26T12:22:53;100041.00;;;20.56;41.67
76808;BME280;65758;45.458;11.062;2023-03-26T12:25:29;100033.55;;;20.45;41.79
76808;BME280;65758;45.458;11.062;2023-03-26T12:30:40;100032.09;;;20.35;42.17
76808;BME280;65758;45.458;11.062;2023-03-26T12:33:36;100035.20;;;20.35;42.15
76808;BME280;65758;45.458;11.062;2023-03-26T12:36:20;100030.16;;;20.28;42.28
76808;BME280;65758;45.458;11.062;2023-03-26T12:38:50;100023.24;;;20.20;42.47
76808;BME280;65758;45.458;11.062;2023-03-26T12:41:39;100017.65;;;20.14;42.39
76808;BME280;65758;45.458;11.062;2023-03-26T12:44:35;100011.09;;;20.05;42.42
76808;BME280;65758;45.458;11.062;2023-03-26T12:47:30;100006.73;;;19.93;42.57
76808;BME280;65758;45.458;11.062;2023-03-26T12:50:21;100002.70;;;19.85;42.85
76808;BME280;65758;45.458;11.062;2023-03-26T12:55:59;99989.90;;;19.66;43.29
76808;BME280;65758;45.458;11.062;2023-03-26T13:10:22;99962.96;;;19.14;44.32
76808;BME280;65758;45.458;11.062;2023-03-26T13:21:52;99943.10;;;18.87;44.98
76808;BME280;65758;45.458;11.062;2023-03-26T13:24:28;99944.58;;;18.81;45.27
76808;BME280;65758;45.458;11.062;2023-03-26T13:27:21;99939.64;;;18.77;45.48
76808;BME280;65758;45.458;11.062;2023-03-26T13:30:35;99926.92;;;18.71;45.58
76808;BME280;65758;45.458;11.062;2023-03-26T13:38:58;99906.52;;;18.46;45.81
76808;BME280;65758;45.458;11.062;2023-03-26T13:46:50;99896.80;;;18.30;46.49
76808;BME280;65758;45.458;11.062;2023-03-26T13:50:00;99897.95;;;18.26;46.76
76808;BME280;65758;45.458;11.062;2023-03-26T13:52:38;99890.83;;;18.20;46.86
76808;BME280;65758;45.458;11.062;2023-03-26T13:55:32;99880.84;;;18.14;46.90
76808;BME280;65758;45.458;11.062;2023-03-26T14:01:29;99859.65;;;18.05;47.07
76808;BME280;65758;45.458;11.062;2023-03-26T14:04:17;99855.08;;;17.99;47.12
76808;BME280;65758;45.458;11.062;2023-03-26T14:15:01;99820.48;;;17.81;48.51
76808;BME280;65758;45.458;11.062;2023-03-26T14:17:38;99814.73;;;17.78;48.93
76808;BME280;65758;45.458;11.062;2023-03-26T14:23:27;99795.48;;;17.72;49.10
76808;BME280;65758;45.458;11.062;2023-03-26T14:34:28;99765.46;;;17.56;50.93
76808;BME280;65758;45.458;11.062;2023-03-26T14:42:52;99754.77;;;17.44;52.13
76808;BME280;65758;45.458;11.062;2023-03-26T14:50:47;99750.30;;;17.29;53.90
76808;BME280;65758;45.458;11.062;2023-03-26T14:53:35;99750.04;;;17.24;54.75
76808;BME280;65758;45.458;11.062;2023-03-26T15:04:41;99740.74;;;16.85;57.17
76808;BME280;65758;45.458;11.062;2023-03-26T15:10:10;99727.89;;;16.72;58.65
76808;BME280;65758;45.458;11.062;2023-03-26T15:12:45;99724.04;;;16.66;58.39
76808;BME280;65758;45.458;11.062;2023-03-26T15:15:34;99716.81;;;16.59;59.83
76808;BME280;65758;45.458;11.062;2023-03-26T15:24:04;99710.55;;;16.27;61.15
76808;BME280;65758;45.458;11.062;2023-03-26T15:30:02;99709.94;;;16.15;62.57
76808;BME280;65758;45.458;11.062;2023-03-26T15:38:40;99693.02;;;15.98;64.23
76808;BME280;65758;45.458;11.062;2023-03-26T16:04:21;99706.64;;;14.92;68.08
76808;BME280;65758;45.458;11.062;2023-03-26T16:06:59;99703.34;;;14.93;68.49
76808;BME280;65758;45.458;11.062;2023-03-26T16:09:52;99702.30;;;14.91;68.80
76808;BME280;65758;45.458;11.062;2023-03-26T16:12:30;99708.63;;;14.93;68.91
76808;BME280;65758;45.458;11.062;2023-03-26T16:15:23;99704.55;;;14.96;68.91
76808;BME280;65758;45.458;11.062;2023-03-26T16:26:39;99704.24;;;15.16;68.59
76808;BME280;65758;45.458;11.062;2023-03-26T16:34:57;99715.80;;;15.06;68.68
76808;BME280;65758;45.458;11.062;2023-03-26T16:40:34;99698.59;;;14.98;68.60
76808;BME280;65758;45.458;11.062;2023-03-26T16:50:57;99708.05;;;14.63;69.26
76808;BME280;65758;45.458;11.062;2023-03-26T17:02:25;99719.41;;;14.28;68.30
76808;BME280;65758;45.458;11.062;2023-03-26T17:05:36;99704.45;;;14.21;67.95
76808;BME280;65758;45.458;11.062;2023-03-26T17:08:23;99673.26;;;14.07;67.72
76808;BME280;65758;45.458;11.062;2023-03-26T17:22:10;99634.36;;;13.97;68.29
76808;BME280;65758;45.458;11.062;2023-03-26T17:24:56;99631.81;;;14.03;68.27
76808;BME280;65758;45.458;11.062;2023-03-26T17:28:32;99624.89;;;14.10;68.02
76808;BME280;65758;45.458;11.062;2023-03-26T17:30:54;99612.11;;;14.16;68.03
76808;BME280;65758;45.458;11.062;2023-03-26T17:33:32;99607.33;;;14.17;68.22
76808;BME280;65758;45.458;11.062;2023-03-26T17:42:09;99585.14;;;14.21;67.86
76808;BME280;65758;45.458;11.062;2023-03-26T17:44:39;99584.10;;;14.20;68.13
76808;BME280;65758;45.458;11.062;2023-03-26T17:47:19;99568.79;;;14.20;68.24
76808;BME280;65758;45.458;11.062;2023-03-26T17:49:51;99566.69;;;14.22;68.02
76808;BME280;65758;45.458;11.062;2023-03-26T17:52:34;99567.23;;;14.26;68.39
76808;BME280;65758;45.458;11.062;2023-03-26T17:55:08;99565.34;;;14.30;68.41
76808;BME280;65758;45.458;11.062;2023-03-26T17:57:47;99567.66;;;14.31;68.35
76808;BME280;65758;45.458;11.062;2023-03-26T18:00:40;99567.05;;;14.32;67.93
76808;BME280;65758;45.458;11.062;2023-03-26T18:03:29;99574.71;;;14.29;68.22
76808;BME280;65758;45.458;11.062;2023-03-26T18:11:46;99619.54;;;14.13;68.63
76808;BME280;65758;45.458;11.062;2023-03-26T18:17:06;99630.84;;;14.02;68.47
76808;BME280;65758;45.458;11.062;2023-03-26T18:19:53;99638.20;;;13.92;68.54
76808;BME280;65758;45.458;11.062;2023-03-26T18:22:29;99641.73;;;13.86;68.29
76808;BME280;65758;45.458;11.062;2023-03-26T18:24:58;99643.98;;;13.81;68.41
76808;BME280;65758;45.458;11.062;2023-03-26T18:27:38;99643.98;;;13.81;68.29
76808;BME280;65758;45.458;11.062;2023-03-26T18:30:20;99640.91;;;13.80;68.32
76808;BME280;65758;45.458;11.062;2023-03-26T18:33:12;99611.87;;;13.72;68.64
76808;BME280;65758;45.458;11.062;2023-03-26T18:35:44;99583.27;;;13.63;69.40
76808;BME280;65758;45.458;11.062;2023-03-26T18:38:18;99578.21;;;13.61;69.48
76808;BME280;65758;45.458;11.062;2023-03-26T18:41:06;99568.93;;;13.59;69.15
76808;BME280;65758;45.458;11.062;2023-03-26T18:43:34;99553.92;;;13.50;69.32
76808;BME280;65758;45.458;11.062;2023-03-26T18:46:13;99556.79;;;13.44;69.66
76808;BME280;65758;45.458;11.062;2023-03-26T18:48:40;99556.08;;;13.44;69.96
76808;BME280;65758;45.458;11.062;2023-03-26T18:51:08;99550.45;;;13.46;70.10
76808;BME280;65758;45.458;11.062;2023-03-26T18:53:38;99550.30;;;13.49;70.02
76808;BME280;65758;45.458;11.062;2023-03-26T18:58:58;99559.48;;;13.58;69.93
76808;BME280;65758;45.458;11.062;2023-03-26T19:01:28;99578.60;;;13.62;69.59
76808;BME280;65758;45.458;11.062;2023-03-26T19:03:57;99590.42;;;13.65;69.50
76808;BME280;65758;45.458;11.062;2023-03-26T19:06:28;99593.06;;;13.68;69.10
76808;BME280;65758;45.458;11.062;2023-03-26T19:08:55;99599.78;;;13.68;68.83
76808;BME280;65758;45.458;11.062;2023-03-26T19:11:24;99612.52;;;13.66;68.92
76808;BME280;65758;45.458;11.062;2023-03-26T19:14:18;99629.24;;;13.64;69.19
76808;BME280;65758;45.458;11.062;2023-03-26T19:16:49;99634.46;;;13.60;69.09
76808;BME280;65758;45.458;11.062;2023-03-26T19:19:26;99636.55;;;13.54;69.55
76808;BME280;65758;45.458;11.062;2023-03-26T19:21:55;99636.77;;;13.52;69.32
76808;BME280;65758;45.458;11.062;2023-03-26T19:24:25;99631.10;;;13.53;69.30